createdAt,value
2022-09-23T00:01:02.972Z,12.81
2022-09-23T00:06:07.259Z,12.83
2022-09-23T00:11:14.682Z,12.84
2022-09-23T00:16:21.000Z,12.82
2022-09-23T00:21:23.211Z,12.84
2022-09-23T00:26:24.957Z,12.86
2022-09-23T00:31:27.320Z,12.89
2022-09-23T00:36:30.284Z,12.91
2022-09-23T00:41:32.369Z,12.89
2022-09-23T00:46:43.643Z,12.91
2022-09-23T00:51:54.418Z,12.85
2022-09-23T00:56:57.405Z,12.76
2022-09-23T01:02:00.273Z,12.72
2022-09-23T01:07:01.823Z,12.61
2022-09-23T01:12:03.361Z,12.52
2022-09-23T01:17:39.939Z,12.44
2022-09-23T01:22:41.367Z,12.37
2022-09-23T01:28:20.267Z,12.28
2022-09-23T01:33:30.511Z,12.25
2022-09-23T01:38:40.713Z,12.23
2022-09-23T01:44:04.643Z,12.16
2022-09-23T01:49:11.514Z,12.12
2022-09-23T01:54:39.376Z,12.10
2022-09-23T01:59:52.625Z,12.11
2022-09-23T02:05:17.562Z,12.06
2022-09-23T02:10:28.158Z,12.02
2022-09-23T02:15:36.806Z,11.92
2022-09-23T02:20:41.327Z,11.98
2022-09-23T02:25:54.554Z,11.96
2022-09-23T02:31:11.792Z,11.94
2022-09-23T02:36:26.016Z,11.92
2022-09-23T02:41:51.892Z,11.97
2022-09-23T02:46:53.523Z,11.98
2022-09-23T02:51:57.255Z,11.98
2022-09-23T02:57:02.232Z,11.93
2022-09-23T03:02:28.006Z,11.94
2022-09-23T03:07:59.436Z,11.93
2022-09-23T03:13:01.866Z,11.88
2022-09-23T03:18:31.517Z,11.80
2022-09-23T03:23:40.247Z,11.73
2022-09-23T03:28:45.035Z,11.73
2022-09-23T03:33:58.755Z,11.71
2022-09-23T03:39:08.659Z,11.70
2022-09-23T03:44:10.838Z,11.68
2022-09-23T03:49:17.182Z,11.69
2022-09-23T03:54:19.664Z,11.69
2022-09-23T03:59:21.139Z,11.72
2022-09-23T04:04:22.641Z,11.70
2022-09-23T04:09:24.297Z,11.69
2022-09-23T04:14:25.897Z,11.71
2022-09-23T04:19:27.373Z,11.73
2022-09-23T04:24:28.993Z,11.75
2022-09-23T04:29:30.488Z,11.82
2022-09-23T04:34:31.979Z,11.86
2022-09-23T04:39:33.471Z,11.89
2022-09-23T04:44:34.946Z,11.89
2022-09-23T04:49:36.417Z,11.91
2022-09-23T04:54:37.873Z,11.95
2022-09-23T04:59:39.735Z,11.97
2022-09-23T05:04:41.713Z,11.94
2022-09-23T05:09:43.163Z,11.98
2022-09-23T05:14:44.645Z,12.02
2022-09-23T05:19:46.153Z,12.03
2022-09-23T05:24:47.610Z,12.07
2022-09-23T05:29:49.482Z,12.11
2022-09-23T05:34:50.953Z,12.19
2022-09-23T05:39:53.523Z,12.28
2022-09-23T05:44:56.136Z,12.36
2022-09-23T05:50:00.334Z,12.41
2022-09-23T05:55:02.604Z,12.47
2022-09-23T06:00:04.607Z,12.55
2022-09-23T06:05:06.166Z,12.58
2022-09-23T06:10:08.315Z,12.62
2022-09-23T06:15:10.706Z,12.68
2022-09-23T06:20:12.184Z,12.77
2022-09-23T06:25:13.713Z,12.82
2022-09-23T06:30:17.169Z,12.86
2022-09-23T06:35:26.944Z,12.94
2022-09-23T06:40:29.222Z,12.99
2022-09-23T06:45:30.735Z,13.01
2022-09-23T06:50:32.230Z,13.05
2022-09-23T06:55:33.724Z,13.07
2022-09-23T07:00:36.260Z,13.13
2022-09-23T07:05:38.527Z,13.17
2022-09-23T07:10:40.817Z,13.21
2022-09-23T07:15:42.382Z,13.30
2022-09-23T07:20:43.938Z,13.34
2022-09-23T07:25:49.452Z,13.38
2022-09-23T07:30:59.439Z,13.42
2022-09-23T07:36:07.387Z,13.50
2022-09-23T07:41:11.130Z,13.53
2022-09-23T07:46:16.410Z,13.55
2022-09-23T07:51:25.623Z,13.59
2022-09-23T07:56:29.392Z,13.64
2022-09-23T08:01:37.061Z,13.69
2022-09-23T08:07:00.201Z,13.74
2022-09-23T08:12:01.932Z,13.77
2022-09-23T08:17:03.417Z,13.82
2022-09-23T08:22:04.899Z,13.89
2022-09-23T08:27:06.405Z,13.94
2022-09-23T08:32:07.925Z,13.95
2022-09-23T08:37:11.134Z,13.99
2022-09-23T08:42:27.611Z,14.02
2022-09-23T08:47:44.355Z,14.05
2022-09-23T08:53:00.437Z,14.08
2022-09-23T08:58:26.218Z,14.12
2022-09-23T09:03:40.730Z,14.17
2022-09-23T09:08:46.387Z,14.21
2022-09-23T09:14:19.231Z,14.22
2022-09-23T09:19:32.286Z,14.23
2022-09-23T09:24:35.089Z,14.21
2022-09-23T09:29:44.851Z,14.27
2022-09-23T09:35:01.354Z,14.29
2022-09-23T09:40:03.578Z,14.34
2022-09-23T09:45:14.398Z,14.34
2022-09-23T09:50:40.093Z,14.42
2022-09-23T09:55:41.813Z,14.47
2022-09-23T10:00:46.122Z,14.48
2022-09-23T10:05:50.108Z,14.54
2022-09-23T10:11:02.776Z,14.55
2022-09-23T10:16:04.888Z,14.56
2022-09-23T10:21:14.338Z,14.58
2022-09-23T10:26:18.657Z,14.58
2022-09-23T10:31:25.943Z,14.59
2022-09-23T10:36:33.382Z,14.59
2022-09-23T10:41:57.760Z,14.58
2022-09-23T10:47:14.569Z,14.56
2022-09-23T10:52:44.403Z,14.57
2022-09-23T10:57:54.084Z,14.53
2022-09-23T11:03:14.167Z,14.55
2022-09-23T11:08:33.885Z,14.55
2022-09-23T11:14:01.010Z,14.59
2022-09-23T11:19:51.477Z,14.63
2022-09-23T11:25:14.284Z,14.69
2022-09-23T11:30:20.385Z,14.74
2022-09-23T11:35:32.228Z,14.86
2022-09-23T11:40:38.913Z,14.96
2022-09-23T11:46:00.545Z,15.04
2022-09-23T11:51:10.092Z,15.13
2022-09-23T11:56:34.766Z,15.20
2022-09-23T12:01:47.042Z,15.27
2022-09-23T12:06:56.919Z,15.31
2022-09-23T12:12:15.372Z,15.38
2022-09-23T12:17:42.160Z,15.43
2022-09-23T12:23:06.554Z,15.43
2022-09-23T12:28:16.495Z,15.45
2022-09-23T12:33:26.159Z,15.49
2022-09-23T12:38:40.509Z,15.55
2022-09-23T12:43:53.862Z,15.62
2022-09-23T12:48:58.247Z,15.70
2022-09-23T12:54:21.231Z,15.78
2022-09-23T12:59:29.022Z,15.93
2022-09-23T13:05:12.261Z,16.03
2022-09-23T13:10:28.863Z,16.17
2022-09-23T13:15:33.988Z,16.22
2022-09-23T13:20:38.308Z,16.29
2022-09-23T13:25:42.959Z,16.30
2022-09-23T13:30:50.262Z,16.24
2022-09-23T13:35:54.029Z,16.20
2022-09-23T13:41:28.631Z,16.21
2022-09-23T13:46:39.942Z,16.18
2022-09-23T13:51:45.109Z,16.22
2022-09-23T13:56:49.214Z,16.22
2022-09-23T14:01:50.818Z,16.12
2022-09-23T14:06:53.846Z,16.15
2022-09-23T14:11:58.370Z,16.16
2022-09-23T14:17:02.571Z,16.16
2022-09-23T14:22:04.229Z,16.11
2022-09-23T14:27:06.487Z,16.11
2022-09-23T14:32:24.436Z,16.04
2022-09-23T14:37:48.736Z,16.03
2022-09-23T14:42:58.623Z,16.00
2022-09-23T14:48:14.443Z,15.99
2022-09-23T14:53:22.518Z,16.00
2022-09-23T14:58:28.643Z,15.98
2022-09-23T15:03:30.456Z,15.88
2022-09-23T15:08:33.834Z,15.81
2022-09-23T15:13:41.466Z,15.76
2022-09-23T15:18:45.963Z,15.74
2022-09-23T15:23:55.956Z,15.73
2022-09-23T15:28:59.115Z,15.72
2022-09-23T15:34:00.676Z,15.73
2022-09-23T15:39:05.313Z,15.73
2022-09-23T15:44:18.694Z,15.71
2022-09-23T15:49:33.642Z,15.72
2022-09-23T15:54:35.511Z,15.68
2022-09-23T15:59:38.283Z,15.66
2022-09-23T16:04:39.730Z,15.62
2022-09-23T16:09:41.214Z,15.54
2022-09-23T16:14:42.772Z,15.55
2022-09-23T16:19:44.592Z,15.52
2022-09-23T16:24:47.382Z,15.47
2022-09-23T16:29:48.835Z,15.43
2022-09-23T16:34:50.343Z,15.38
2022-09-23T16:39:52.006Z,15.34
2022-09-23T16:44:53.511Z,15.29
2022-09-23T16:49:54.997Z,15.29
2022-09-23T16:54:56.491Z,15.28
2022-09-23T17:00:16.821Z,15.25
2022-09-23T17:05:19.327Z,15.24
2022-09-23T17:10:21.415Z,15.23
2022-09-23T17:15:22.960Z,15.16
2022-09-23T17:20:24.412Z,15.14
2022-09-23T17:25:26.005Z,15.15
2022-09-23T17:30:30.787Z,15.11
2022-09-23T17:35:32.300Z,15.11
2022-09-23T17:40:35.764Z,15.10
2022-09-23T17:45:37.491Z,15.08
2022-09-23T17:50:39.028Z,15.07
2022-09-23T17:55:40.919Z,14.99
2022-09-23T18:00:46.035Z,14.98
2022-09-23T18:05:47.790Z,14.94
2022-09-23T18:10:49.270Z,14.89
2022-09-23T18:15:51.322Z,14.85
2022-09-23T18:20:52.858Z,14.84
2022-09-23T18:25:54.356Z,14.82
2022-09-23T18:30:57.805Z,14.82
2022-09-23T18:36:01.154Z,14.79
2022-09-23T18:41:02.689Z,14.80
2022-09-23T18:46:07.535Z,14.80
2022-09-23T18:51:10.056Z,14.80
2022-09-23T18:56:14.474Z,14.80
2022-09-23T19:01:16.784Z,14.79
2022-09-23T19:06:21.224Z,14.81
2022-09-23T19:11:24.033Z,14.81
2022-09-23T19:16:25.957Z,14.81
2022-09-23T19:21:28.681Z,14.81
2022-09-23T19:26:36.685Z,14.79
2022-09-23T19:31:39.996Z,14.79
2022-09-23T19:36:44.002Z,14.78
2022-09-23T19:41:46.176Z,14.74
2022-09-23T19:46:53.630Z,14.71
2022-09-23T19:51:57.392Z,14.68
2022-09-23T19:56:59.360Z,14.65
2022-09-23T20:02:00.970Z,14.60
2022-09-23T20:07:04.432Z,14.55
2022-09-23T20:12:05.917Z,14.52
2022-09-23T20:17:07.743Z,14.47
2022-09-23T20:22:25.403Z,14.46
2022-09-23T20:27:32.581Z,14.45
2022-09-23T20:32:36.669Z,14.44
2022-09-23T20:37:38.139Z,14.45
2022-09-23T20:42:39.588Z,14.44
2022-09-23T20:47:41.084Z,14.46
2022-09-23T20:52:42.552Z,14.46
2022-09-23T20:57:45.143Z,14.49
2022-09-23T21:02:46.607Z,14.47
2022-09-23T21:07:48.089Z,14.50
2022-09-23T21:12:50.415Z,14.51
2022-09-23T21:17:52.200Z,14.52
2022-09-23T21:22:53.701Z,14.55
2022-09-23T21:27:55.172Z,14.54
2022-09-23T21:32:56.873Z,14.53
2022-09-23T21:38:00.213Z,14.50
2022-09-23T21:43:01.738Z,14.52
2022-09-23T21:48:04.765Z,14.50
2022-09-23T21:53:07.252Z,14.49
2022-09-23T21:58:08.717Z,14.40
2022-09-23T22:03:12.007Z,14.39
2022-09-23T22:08:13.523Z,14.36
2022-09-23T22:13:15.933Z,14.35
2022-09-23T22:18:19.221Z,14.34
2022-09-23T22:23:21.082Z,14.31
2022-09-23T22:28:41.096Z,14.27
2022-09-23T22:33:42.566Z,14.25
2022-09-23T22:38:44.022Z,14.22
2022-09-23T22:43:45.468Z,14.23
2022-09-23T22:48:46.939Z,14.21
2022-09-23T22:53:52.162Z,14.18
2022-09-23T22:58:55.200Z,14.15
2022-09-23T23:03:58.177Z,14.14
2022-09-23T23:09:00.050Z,14.13
2022-09-23T23:14:02.662Z,14.10
2022-09-23T23:19:06.749Z,14.07
2022-09-23T23:24:15.569Z,14.05
2022-09-23T23:29:19.210Z,14.05
2022-09-23T23:34:21.645Z,14.06
2022-09-23T23:39:24.607Z,14.07
2022-09-23T23:44:26.647Z,14.05
2022-09-23T23:49:28.713Z,14.04
2022-09-23T23:54:30.180Z,14.01
2022-09-23T23:59:31.896Z,14.00
